createdAt,value
2023-01-28T00:01:46.866Z,19.00
2023-01-28T00:04:14.435Z,19.00
2023-01-28T00:06:41.358Z,19.00
2023-01-28T00:09:08.265Z,19.00
2023-01-28T00:11:35.089Z,19.00
2023-01-28T00:14:01.962Z,19.00
2023-01-28T00:16:30.189Z,19.00
2023-01-28T00:18:57.138Z,19.00
2023-01-28T00:21:23.949Z,19.00
2023-01-28T00:23:54.200Z,19.00
2023-01-28T00:26:22.226Z,19.00
2023-01-28T00:28:49.220Z,19.00
2023-01-28T00:31:26.135Z,19.00
2023-01-28T00:33:54.483Z,19.00
2023-01-28T00:36:23.101Z,19.00
2023-01-28T00:38:55.422Z,19.00
2023-01-28T00:41:24.588Z,19.00
2023-01-28T00:43:52.615Z,19.00
2023-01-28T00:46:20.649Z,19.00
2023-01-28T00:48:47.713Z,19.00
2023-01-28T00:51:17.204Z,19.00
2023-01-28T00:53:44.400Z,19.00
2023-01-28T00:56:14.337Z,19.00
2023-01-28T00:58:41.521Z,19.00
2023-01-28T01:01:21.552Z,19.10
2023-01-28T01:03:57.435Z,19.10
2023-01-28T01:06:25.348Z,19.10
2023-01-28T01:08:52.116Z,19.10
2023-01-28T01:11:19.401Z,19.10
2023-01-28T01:13:55.193Z,19.10
2023-01-28T01:16:24.241Z,19.10
2023-01-28T01:18:52.790Z,19.10
2023-01-28T01:21:22.621Z,19.10
2023-01-28T01:23:50.724Z,19.10
2023-01-28T01:26:17.497Z,19.00
2023-01-28T01:28:44.859Z,19.00
2023-01-28T01:31:15.213Z,19.00
2023-01-28T01:33:43.504Z,19.00
2023-01-28T01:36:12.039Z,19.00
2023-01-28T01:38:39.166Z,18.90
2023-01-28T01:41:06.971Z,18.90
2023-01-28T01:43:52.921Z,18.90
2023-01-28T01:46:37.970Z,18.90
2023-01-28T01:49:18.046Z,18.90
2023-01-28T01:51:48.857Z,18.90
2023-01-28T01:54:17.591Z,18.90
2023-01-28T01:56:48.775Z,18.90
2023-01-28T01:59:21.499Z,18.90
2023-01-28T02:01:48.727Z,18.90
2023-01-28T02:04:28.991Z,18.90
2023-01-28T02:06:57.072Z,18.90
2023-01-28T02:09:27.079Z,18.90
2023-01-28T02:11:58.503Z,18.90
2023-01-28T02:14:31.518Z,18.90
2023-01-28T02:17:00.760Z,18.90
2023-01-28T02:19:38.064Z,18.90
2023-01-28T02:22:33.690Z,18.90
2023-01-28T02:25:19.219Z,18.90
2023-01-28T02:28:06.885Z,18.90
2023-01-28T02:30:38.830Z,18.90
2023-01-28T02:33:16.758Z,18.90
2023-01-28T02:35:55.589Z,18.90
2023-01-28T02:38:45.703Z,18.90
2023-01-28T02:41:25.332Z,18.90
2023-01-28T02:43:52.116Z,18.90
2023-01-28T02:46:43.556Z,18.90
2023-01-28T02:49:21.707Z,18.90
2023-01-28T02:52:07.058Z,18.80
2023-01-28T02:55:04.022Z,18.80
2023-01-28T02:57:34.033Z,18.90
2023-01-28T03:00:22.414Z,18.80
2023-01-28T03:03:15.523Z,18.80
2023-01-28T03:06:07.002Z,18.80
2023-01-28T03:08:54.711Z,18.80
2023-01-28T03:11:40.827Z,18.80
2023-01-28T03:14:27.808Z,18.80
2023-01-28T03:17:14.973Z,18.80
2023-01-28T03:20:00.780Z,18.80
2023-01-28T03:22:49.750Z,18.80
2023-01-28T03:25:40.183Z,18.80
2023-01-28T03:28:29.988Z,18.80
2023-01-28T03:31:23.404Z,18.90
2023-01-28T03:34:10.662Z,18.90
2023-01-28T03:36:56.201Z,18.90
2023-01-28T03:39:28.989Z,18.80
2023-01-28T03:42:02.268Z,18.80
2023-01-28T03:44:47.753Z,18.80
2023-01-28T03:47:14.772Z,18.80
2023-01-28T03:49:49.165Z,18.80
2023-01-28T03:52:19.368Z,18.80
2023-01-28T03:54:49.811Z,18.80
2023-01-28T03:57:18.314Z,18.80
2023-01-28T03:59:45.369Z,18.70
2023-01-28T04:02:12.770Z,18.70
2023-01-28T04:04:40.688Z,18.70
2023-01-28T04:07:10.565Z,18.80
2023-01-28T04:09:37.965Z,18.80
2023-01-28T04:12:05.115Z,18.80
2023-01-28T04:14:32.146Z,18.80
2023-01-28T04:16:59.110Z,18.90
2023-01-28T04:19:26.832Z,18.90
2023-01-28T04:21:56.764Z,19.00
2023-01-28T04:24:23.940Z,19.10
2023-01-28T04:26:50.787Z,19.20
2023-01-28T04:29:17.559Z,19.20
2023-01-28T04:31:44.476Z,19.30
2023-01-28T04:34:11.286Z,19.40
2023-01-28T04:36:38.060Z,19.40
2023-01-28T04:39:04.854Z,19.40
2023-01-28T04:41:31.668Z,19.40
2023-01-28T04:43:58.402Z,19.50
2023-01-28T04:46:25.247Z,19.40
2023-01-28T04:48:51.998Z,19.40
2023-01-28T04:51:18.765Z,19.40
2023-01-28T04:53:45.529Z,19.40
2023-01-28T04:56:12.254Z,19.40
2023-01-28T04:58:39.600Z,19.40
2023-01-28T05:01:06.424Z,19.50
2023-01-28T05:03:35.944Z,19.50
2023-01-28T05:06:04.458Z,19.50
2023-01-28T05:08:31.219Z,19.60
2023-01-28T05:10:57.966Z,19.60
2023-01-28T05:13:25.338Z,19.60
2023-01-28T05:15:53.947Z,19.70
2023-01-28T05:18:20.944Z,19.70
2023-01-28T05:20:48.524Z,19.70
2023-01-28T05:23:15.423Z,19.70
2023-01-28T05:25:42.194Z,19.70
2023-01-28T05:28:08.990Z,19.70
2023-01-28T05:30:35.802Z,19.70
2023-01-28T05:33:02.564Z,19.60
2023-01-28T05:35:29.410Z,19.60
2023-01-28T05:37:56.520Z,19.60
2023-01-28T05:40:23.518Z,19.60
2023-01-28T05:42:50.277Z,19.60
2023-01-28T05:45:17.558Z,19.60
2023-01-28T05:47:45.828Z,19.60
2023-01-28T05:50:14.648Z,19.70
2023-01-28T05:52:41.992Z,19.70
2023-01-28T05:55:09.387Z,19.80
2023-01-28T05:57:36.283Z,19.80
2023-01-28T06:00:05.557Z,19.80
2023-01-28T06:02:32.701Z,19.80
2023-01-28T06:05:00.412Z,19.90
2023-01-28T06:07:27.368Z,19.90
2023-01-28T06:09:54.298Z,19.90
2023-01-28T06:12:21.076Z,19.90
2023-01-28T06:14:47.920Z,19.80
2023-01-28T06:17:14.658Z,19.80
2023-01-28T06:19:41.436Z,19.80
2023-01-28T06:22:08.588Z,19.80
2023-01-28T06:24:35.402Z,19.80
2023-01-28T06:27:02.174Z,19.80
2023-01-28T06:29:29.339Z,19.80
2023-01-28T06:31:56.110Z,19.80
2023-01-28T06:34:22.865Z,19.80
2023-01-28T06:36:50.916Z,19.80
2023-01-28T06:39:17.684Z,19.80
2023-01-28T06:41:44.437Z,19.80
2023-01-28T06:44:11.439Z,19.80
2023-01-28T06:46:38.290Z,19.80
2023-01-28T06:49:05.097Z,19.80
2023-01-28T06:51:31.920Z,19.80
2023-01-28T06:53:58.683Z,19.70
2023-01-28T06:56:25.503Z,19.70
2023-01-28T06:58:52.376Z,19.60
2023-01-28T07:01:19.129Z,19.60
2023-01-28T07:03:45.897Z,19.50
2023-01-28T07:06:12.709Z,19.40
2023-01-28T07:08:39.882Z,19.40
2023-01-28T07:11:07.047Z,19.40
2023-01-28T07:13:34.052Z,19.40
2023-01-28T07:16:01.103Z,19.30
2023-01-28T07:18:27.867Z,19.40
2023-01-28T07:20:54.653Z,19.40
2023-01-28T07:23:21.422Z,19.40
2023-01-28T07:25:48.162Z,19.40
2023-01-28T07:28:21.151Z,19.40
2023-01-28T07:30:53.462Z,19.40
2023-01-28T07:33:21.004Z,19.40
2023-01-28T07:35:48.590Z,19.50
2023-01-28T07:38:15.464Z,19.50
2023-01-28T07:40:48.322Z,19.50
2023-01-28T07:43:15.143Z,19.50
2023-01-28T07:45:41.963Z,19.40
2023-01-28T07:48:11.727Z,19.40
2023-01-28T07:50:39.621Z,19.30
2023-01-28T07:53:11.219Z,19.20
2023-01-28T07:55:38.788Z,19.20
2023-01-28T07:58:07.509Z,19.20
2023-01-28T08:00:36.354Z,19.10
2023-01-28T08:03:06.557Z,19.10
2023-01-28T08:05:50.761Z,19.10
2023-01-28T08:08:17.608Z,19.20
2023-01-28T08:10:44.836Z,19.20
2023-01-28T08:13:13.744Z,19.20
2023-01-28T08:15:40.974Z,19.20
2023-01-28T08:18:09.479Z,19.20
2023-01-28T08:20:36.709Z,19.30
2023-01-28T08:23:16.169Z,19.30
2023-01-28T08:25:43.547Z,19.30
2023-01-28T08:28:11.141Z,19.30
2023-01-28T08:30:38.924Z,19.30
2023-01-28T08:33:08.569Z,19.30
2023-01-28T08:35:35.834Z,19.30
2023-01-28T08:38:04.071Z,19.20
2023-01-28T08:40:31.391Z,19.20
2023-01-28T08:42:58.401Z,19.20
2023-01-28T08:45:28.017Z,19.10
2023-01-28T08:48:16.027Z,19.00
2023-01-28T08:50:43.593Z,19.00
2023-01-28T08:53:15.606Z,18.90
2023-01-28T08:55:42.860Z,19.00
2023-01-28T08:58:15.161Z,19.00
2023-01-28T09:00:43.252Z,19.00
2023-01-28T09:03:10.750Z,19.00
2023-01-28T09:05:38.348Z,19.10
2023-01-28T09:08:07.638Z,19.10
2023-01-28T09:10:34.500Z,19.10
2023-01-28T09:13:06.685Z,19.20
2023-01-28T09:15:34.131Z,19.20
2023-01-28T09:18:00.925Z,19.20
2023-01-28T09:20:27.935Z,19.20
2023-01-28T09:22:54.891Z,19.20
2023-01-28T09:25:21.835Z,19.20
2023-01-28T09:27:48.799Z,19.20
2023-01-28T09:30:16.225Z,19.30
2023-01-28T09:32:43.558Z,19.20
2023-01-28T09:35:10.763Z,19.20
2023-01-28T09:37:37.557Z,19.20
2023-01-28T09:40:05.647Z,19.10
2023-01-28T09:43:05.932Z,19.20
2023-01-28T09:45:42.979Z,19.20
2023-01-28T09:48:46.523Z,19.20
2023-01-28T09:51:40.946Z,19.20
2023-01-28T09:54:38.109Z,19.30
2023-01-28T09:57:11.977Z,19.40
2023-01-28T09:59:38.996Z,19.40
2023-01-28T10:02:26.020Z,19.40
2023-01-28T10:05:44.697Z,19.40
2023-01-28T10:08:20.903Z,19.40
2023-01-28T10:10:54.377Z,19.50
2023-01-28T10:13:55.774Z,19.50
2023-01-28T10:16:31.465Z,19.50
2023-01-28T10:19:00.686Z,19.60
2023-01-28T10:21:34.982Z,19.60
2023-01-28T10:24:15.060Z,19.60
2023-01-28T10:26:43.918Z,19.60
2023-01-28T10:29:19.291Z,19.60
2023-01-28T10:31:53.426Z,19.70
2023-01-28T10:34:21.411Z,19.70
2023-01-28T10:36:49.263Z,19.80
2023-01-28T10:39:18.507Z,19.80
2023-01-28T10:41:56.590Z,19.80
2023-01-28T10:44:35.715Z,19.80
2023-01-28T10:47:10.268Z,19.80
2023-01-28T10:49:43.409Z,19.90
2023-01-28T10:52:14.295Z,19.90
2023-01-28T10:54:41.145Z,20.00
2023-01-28T10:57:14.436Z,20.00
2023-01-28T10:59:42.020Z,20.10
2023-01-28T11:02:29.879Z,20.10
2023-01-28T11:05:21.044Z,20.20
2023-01-28T11:07:49.898Z,20.20
2023-01-28T11:10:43.495Z,20.20
2023-01-28T11:13:28.876Z,20.30
2023-01-28T11:16:02.994Z,20.30
2023-01-28T11:18:39.047Z,20.30
2023-01-28T11:21:14.032Z,20.30
2023-01-28T11:23:52.153Z,20.20
2023-01-28T11:26:23.101Z,20.20
2023-01-28T11:28:51.001Z,20.20
2023-01-28T11:31:19.550Z,20.10
2023-01-28T11:33:57.104Z,20.10
2023-01-28T11:36:26.192Z,20.10
2023-01-28T11:38:52.975Z,20.10
2023-01-28T11:41:38.919Z,20.10
2023-01-28T11:44:23.950Z,20.10
2023-01-28T11:47:12.439Z,20.20
2023-01-28T11:49:51.504Z,20.20
2023-01-28T11:53:04.974Z,20.20
2023-01-28T11:55:39.994Z,20.30
2023-01-28T11:58:16.545Z,20.30
2023-01-28T12:00:43.268Z,20.40
2023-01-28T12:03:38.524Z,20.40
2023-01-28T12:06:26.747Z,20.50
2023-01-28T12:09:08.375Z,20.50
2023-01-28T12:12:12.584Z,20.50
2023-01-28T12:15:04.078Z,20.50
2023-01-28T12:17:49.315Z,20.50
2023-01-28T12:20:32.038Z,20.50
2023-01-28T12:23:20.563Z,20.50
2023-01-28T12:26:06.452Z,20.50
2023-01-28T12:29:01.553Z,20.60
2023-01-28T12:31:53.130Z,20.60
2023-01-28T12:34:25.506Z,20.60
2023-01-28T12:37:10.406Z,20.60
2023-01-28T12:40:05.750Z,20.50
2023-01-28T12:42:37.521Z,20.50
2023-01-28T12:45:17.278Z,20.40
2023-01-28T12:47:54.834Z,20.30
2023-01-28T12:50:33.119Z,20.20
2023-01-28T12:53:05.592Z,20.20
2023-01-28T12:56:24.417Z,20.20
2023-01-28T12:59:29.113Z,20.20
2023-01-28T13:02:09.249Z,20.20
2023-01-28T13:05:04.753Z,20.20
2023-01-28T13:07:56.401Z,20.20
2023-01-28T13:10:29.641Z,20.20
2023-01-28T13:12:57.759Z,20.20
2023-01-28T13:15:25.453Z,20.20
2023-01-28T13:18:03.398Z,20.20
2023-01-28T13:21:00.706Z,20.20
2023-01-28T13:23:45.867Z,20.20
2023-01-28T13:26:18.797Z,20.30
2023-01-28T13:28:51.387Z,20.30
2023-01-28T13:31:21.133Z,20.40
2023-01-28T13:34:00.106Z,20.40
2023-01-28T13:36:39.110Z,20.40
2023-01-28T13:39:12.069Z,20.50
2023-01-28T13:41:53.819Z,20.50
2023-01-28T13:44:30.081Z,20.50
2023-01-28T13:47:11.996Z,20.40
2023-01-28T13:49:54.843Z,20.40
2023-01-28T13:52:26.845Z,20.40
2023-01-28T13:55:00.586Z,20.30
2023-01-28T13:57:45.509Z,20.20
2023-01-28T14:00:25.184Z,20.10
2023-01-28T14:03:21.038Z,20.10
2023-01-28T14:06:23.917Z,20.10
2023-01-28T14:09:25.475Z,20.00
2023-01-28T14:12:16.736Z,20.00
2023-01-28T14:15:17.718Z,20.00
2023-01-28T14:17:47.409Z,20.00
2023-01-28T14:20:45.334Z,20.00
2023-01-28T14:23:21.965Z,20.10
2023-01-28T14:26:38.666Z,20.10
2023-01-28T14:29:25.692Z,20.10
2023-01-28T14:31:53.926Z,20.20
2023-01-28T14:34:30.996Z,20.20
2023-01-28T14:37:08.252Z,20.20
2023-01-28T14:39:46.125Z,20.30
2023-01-28T14:42:25.677Z,20.30
2023-01-28T14:45:19.601Z,20.30
2023-01-28T14:47:52.370Z,20.40
2023-01-28T14:50:42.429Z,20.40
2023-01-28T14:53:21.465Z,20.40
2023-01-28T14:55:58.961Z,20.40
2023-01-28T14:58:31.901Z,20.50
2023-01-28T15:01:00.746Z,20.50
2023-01-28T15:03:29.609Z,20.50
2023-01-28T15:06:12.695Z,20.50
2023-01-28T15:08:40.484Z,20.40
2023-01-28T15:11:14.670Z,20.40
2023-01-28T15:13:45.167Z,20.30
2023-01-28T15:16:24.233Z,20.30
2023-01-28T15:18:51.779Z,20.20
2023-01-28T15:21:23.521Z,20.20
2023-01-28T15:23:53.677Z,20.20
2023-01-28T15:26:26.205Z,20.20
2023-01-28T15:28:54.628Z,20.20
2023-01-28T15:31:30.442Z,20.20
2023-01-28T15:34:02.619Z,20.20
2023-01-28T15:36:30.799Z,20.20
2023-01-28T15:38:58.180Z,20.20
2023-01-28T15:41:32.377Z,20.30
2023-01-28T15:43:59.847Z,20.40
2023-01-28T15:46:26.837Z,20.40
2023-01-28T15:49:02.236Z,20.40
2023-01-28T15:51:31.895Z,20.50
2023-01-28T15:54:01.937Z,20.60
2023-01-28T15:56:30.664Z,20.60
2023-01-28T15:59:21.974Z,20.60
2023-01-28T16:01:48.932Z,20.60
2023-01-28T16:04:24.924Z,20.60
2023-01-28T16:06:53.680Z,20.70
2023-01-28T16:09:26.541Z,20.70
2023-01-28T16:11:53.944Z,20.70
2023-01-28T16:14:28.186Z,20.60
2023-01-28T16:16:56.456Z,20.60
2023-01-28T16:19:42.050Z,20.50
2023-01-28T16:22:20.056Z,20.40
2023-01-28T16:24:52.807Z,20.40
2023-01-28T16:27:25.919Z,20.30
2023-01-28T16:29:52.856Z,20.20
2023-01-28T16:32:40.196Z,20.20
2023-01-28T16:35:13.836Z,20.20
2023-01-28T16:37:42.403Z,20.10
2023-01-28T16:40:11.477Z,20.10
2023-01-28T16:42:38.538Z,20.10
2023-01-28T16:45:05.896Z,20.10
2023-01-28T16:47:32.700Z,20.00
2023-01-28T16:49:59.447Z,20.00
2023-01-28T16:52:26.244Z,20.00
2023-01-28T16:54:53.161Z,20.00
2023-01-28T16:57:22.295Z,20.00
2023-01-28T16:59:49.083Z,20.10
2023-01-28T17:02:17.845Z,20.10
2023-01-28T17:04:44.666Z,20.10
2023-01-28T17:07:11.581Z,20.10
2023-01-28T17:09:38.354Z,20.10
2023-01-28T17:12:05.643Z,20.20
2023-01-28T17:14:32.666Z,20.20
2023-01-28T17:16:59.838Z,20.20
2023-01-28T17:19:26.628Z,20.20
2023-01-28T17:21:53.432Z,20.20
2023-01-28T17:24:20.742Z,20.30
2023-01-28T17:26:51.267Z,20.30
2023-01-28T17:29:18.388Z,20.30
2023-01-28T17:31:45.209Z,20.40
2023-01-28T17:34:12.376Z,20.30
2023-01-28T17:36:39.186Z,20.30
2023-01-28T17:39:07.457Z,20.30
2023-01-28T17:41:34.323Z,20.30
2023-01-28T17:44:01.309Z,20.30
2023-01-28T17:46:28.200Z,20.20
2023-01-28T17:48:54.995Z,20.20
2023-01-28T17:51:22.299Z,20.20
2023-01-28T17:53:53.537Z,20.20
2023-01-28T17:56:28.574Z,20.20
2023-01-28T17:58:58.116Z,20.20
2023-01-28T18:01:25.967Z,20.20
2023-01-28T18:03:53.058Z,20.20
2023-01-28T18:06:19.955Z,20.20
2023-01-28T18:08:46.818Z,20.30
2023-01-28T18:11:16.376Z,20.30
2023-01-28T18:13:43.655Z,20.40
2023-01-28T18:16:17.982Z,20.40
2023-01-28T18:18:45.324Z,20.40
2023-01-28T18:21:51.691Z,20.40
2023-01-28T18:24:20.790Z,20.40
2023-01-28T18:26:47.811Z,20.40
2023-01-28T18:29:17.095Z,20.40
2023-01-28T18:31:45.369Z,20.40
2023-01-28T18:34:12.195Z,20.40
2023-01-28T18:36:39.054Z,20.40
2023-01-28T18:39:05.984Z,20.40
2023-01-28T18:41:32.794Z,20.30
2023-01-28T18:43:59.583Z,20.30
2023-01-28T18:46:26.501Z,20.30
2023-01-28T18:48:53.273Z,20.20
2023-01-28T18:51:30.030Z,20.20
2023-01-28T18:54:02.788Z,20.20
2023-01-28T18:56:30.664Z,20.20
2023-01-28T18:58:59.194Z,20.20
2023-01-28T19:01:26.396Z,20.20
2023-01-28T19:03:54.798Z,20.20
2023-01-28T19:06:21.604Z,20.20
2023-01-28T19:08:56.422Z,20.20
2023-01-28T19:11:24.421Z,20.20
2023-01-28T19:13:51.777Z,20.20
2023-01-28T19:16:21.640Z,20.20
2023-01-28T19:18:56.610Z,20.20
2023-01-28T19:21:24.859Z,20.20
2023-01-28T19:23:56.588Z,20.20
2023-01-28T19:26:24.510Z,20.20
2023-01-28T19:28:51.621Z,20.30
2023-01-28T19:31:20.747Z,20.30
2023-01-28T19:33:48.591Z,20.40
2023-01-28T19:36:15.655Z,20.40
2023-01-28T19:38:42.693Z,20.40
2023-01-28T19:41:09.505Z,20.40
2023-01-28T19:43:37.391Z,20.40
2023-01-28T19:46:06.049Z,20.40
2023-01-28T19:48:33.805Z,20.40
2023-01-28T19:51:08.865Z,20.40
2023-01-28T19:53:37.431Z,20.40
2023-01-28T19:56:06.937Z,20.40
2023-01-28T19:58:38.554Z,20.40
2023-01-28T20:01:13.892Z,20.40
2023-01-28T20:03:40.809Z,20.30
2023-01-28T20:06:17.483Z,20.30
2023-01-28T20:08:44.729Z,20.30
2023-01-28T20:11:14.044Z,20.30
2023-01-28T20:13:43.582Z,20.30
2023-01-28T20:16:21.569Z,20.30
2023-01-28T20:18:53.638Z,20.20
2023-01-28T20:21:21.660Z,20.20
2023-01-28T20:23:50.094Z,20.20
2023-01-28T20:26:17.954Z,20.20
2023-01-28T20:28:44.727Z,20.20
2023-01-28T20:31:12.179Z,20.20
2023-01-28T20:33:40.047Z,20.20
2023-01-28T20:36:10.444Z,20.20
2023-01-28T20:38:39.605Z,20.20
2023-01-28T20:41:15.155Z,20.10
2023-01-28T20:43:43.925Z,20.10
2023-01-28T20:46:13.533Z,20.00
2023-01-28T20:48:40.610Z,19.90
2023-01-28T20:51:13.162Z,19.90
2023-01-28T20:53:41.074Z,19.90
2023-01-28T20:56:09.258Z,19.80
2023-01-28T20:58:36.206Z,19.80
2023-01-28T21:01:03.565Z,19.70
2023-01-28T21:03:30.836Z,19.70
2023-01-28T21:05:57.609Z,19.70
2023-01-28T21:08:25.127Z,19.70
2023-01-28T21:10:52.359Z,19.70
2023-01-28T21:13:19.404Z,19.70
2023-01-28T21:15:54.669Z,19.70
2023-01-28T21:18:21.883Z,19.70
2023-01-28T21:20:49.009Z,19.70
2023-01-28T21:23:16.026Z,19.70
2023-01-28T21:25:43.553Z,19.70
2023-01-28T21:28:11.031Z,19.70
2023-01-28T21:30:38.347Z,19.70
2023-01-28T21:33:05.834Z,19.70
2023-01-28T21:35:36.638Z,19.70
2023-01-28T21:38:04.208Z,19.70
2023-01-28T21:40:32.029Z,19.60
2023-01-28T21:42:59.536Z,19.60
2023-01-28T21:45:26.407Z,19.60
2023-01-28T21:47:54.245Z,19.50
2023-01-28T21:50:22.166Z,19.50
2023-01-28T21:52:50.371Z,19.50
2023-01-28T21:55:18.045Z,19.40
2023-01-28T21:57:44.894Z,19.40
2023-01-28T22:00:13.093Z,19.40
2023-01-28T22:02:40.178Z,19.40
2023-01-28T22:05:07.571Z,19.40
2023-01-28T22:07:34.345Z,19.40
2023-01-28T22:10:01.138Z,19.30
2023-01-28T22:12:28.126Z,19.30
2023-01-28T22:14:54.999Z,19.30
2023-01-28T22:17:23.183Z,19.30
2023-01-28T22:19:50.200Z,19.30
2023-01-28T22:22:17.968Z,19.30
2023-01-28T22:24:44.787Z,19.30
2023-01-28T22:27:11.678Z,19.30
2023-01-28T22:29:38.474Z,19.30
2023-01-28T22:32:05.550Z,19.30
2023-01-28T22:34:32.306Z,19.30
2023-01-28T22:36:59.556Z,19.30
2023-01-28T22:39:27.188Z,19.40
2023-01-28T22:41:53.986Z,19.40
2023-01-28T22:44:20.984Z,19.40
2023-01-28T22:46:48.266Z,19.40
2023-01-28T22:49:15.318Z,19.40
2023-01-28T22:51:42.275Z,19.40
2023-01-28T22:54:11.004Z,19.40
2023-01-28T22:56:38.367Z,19.40
2023-01-28T22:59:05.179Z,19.40
2023-01-28T23:01:33.072Z,19.40
2023-01-28T23:04:00.147Z,19.40
2023-01-28T23:06:28.333Z,19.40
2023-01-28T23:08:56.339Z,19.40
2023-01-28T23:11:27.354Z,19.40
2023-01-28T23:14:18.930Z,19.40
2023-01-28T23:17:05.527Z,19.40
2023-01-28T23:19:51.964Z,19.40
2023-01-28T23:22:44.957Z,19.40
2023-01-28T23:25:12.011Z,19.40
2023-01-28T23:27:38.836Z,19.40
2023-01-28T23:30:10.024Z,19.30
2023-01-28T23:32:39.974Z,19.30
2023-01-28T23:35:08.611Z,19.20
2023-01-28T23:37:35.387Z,19.30
2023-01-28T23:40:03.318Z,19.20
2023-01-28T23:42:30.625Z,19.20
2023-01-28T23:44:57.380Z,19.20
2023-01-28T23:47:24.345Z,19.20
2023-01-28T23:49:51.195Z,19.20
2023-01-28T23:52:18.019Z,19.20
2023-01-28T23:54:44.791Z,19.20
2023-01-28T23:57:11.599Z,19.20
2023-01-28T23:59:38.342Z,19.20
